createdAt,value
2023-03-03T00:01:16.056Z,8.79
2023-03-03T00:03:42.900Z,8.74
2023-03-03T00:06:11.992Z,8.57
2023-03-03T00:08:39.314Z,8.71
2023-03-03T00:11:07.834Z,8.67
2023-03-03T00:13:43.875Z,8.75
2023-03-03T00:16:24.362Z,8.61
2023-03-03T00:18:52.171Z,8.71
2023-03-03T00:21:42.204Z,8.66
2023-03-03T00:24:22.480Z,8.37
2023-03-03T00:26:55.710Z,8.44
2023-03-03T00:29:30.894Z,8.46
2023-03-03T00:32:22.750Z,8.34
2023-03-03T00:34:50.674Z,8.31
2023-03-03T00:37:29.094Z,8.37
2023-03-03T00:40:14.957Z,8.38
2023-03-03T00:42:43.563Z,8.42
2023-03-03T00:45:30.093Z,8.35
2023-03-03T00:47:57.527Z,8.21
2023-03-03T00:50:34.610Z,8.15
2023-03-03T00:53:12.926Z,8.23
2023-03-03T00:55:40.641Z,8.24
2023-03-03T00:58:07.629Z,8.31
2023-03-03T01:00:41.034Z,8.30
2023-03-03T01:03:21.680Z,8.26
2023-03-03T01:05:49.789Z,8.17
2023-03-03T01:08:17.264Z,8.08
2023-03-03T01:10:51.585Z,8.21
2023-03-03T01:13:20.426Z,8.24
2023-03-03T01:15:47.130Z,8.24
2023-03-03T01:18:14.481Z,8.08
2023-03-03T01:20:41.871Z,8.00
2023-03-03T01:23:08.893Z,8.12
2023-03-03T01:25:36.206Z,8.11
2023-03-03T01:28:03.033Z,7.98
2023-03-03T01:30:29.829Z,8.01
2023-03-03T01:32:56.811Z,7.96
2023-03-03T01:35:24.023Z,7.89
2023-03-03T01:37:50.775Z,8.02
2023-03-03T01:40:25.191Z,7.95
2023-03-03T01:42:52.753Z,7.92
2023-03-03T01:45:23.996Z,7.79
2023-03-03T01:47:58.754Z,7.87
2023-03-03T01:50:45.911Z,7.93
2023-03-03T01:53:25.954Z,7.70
2023-03-03T01:55:53.466Z,7.52
2023-03-03T01:58:29.959Z,7.64
2023-03-03T02:01:08.560Z,7.65
2023-03-03T02:03:35.723Z,7.48
2023-03-03T02:06:08.538Z,7.61
2023-03-03T02:08:41.179Z,7.69
2023-03-03T02:11:09.047Z,7.60
2023-03-03T02:13:36.815Z,7.63
2023-03-03T02:16:03.862Z,7.61
2023-03-03T02:18:30.775Z,7.70
2023-03-03T02:21:03.455Z,7.36
2023-03-03T02:23:36.165Z,7.60
2023-03-03T02:26:09.419Z,7.58
2023-03-03T02:28:37.481Z,7.74
2023-03-03T02:31:13.578Z,7.81
2023-03-03T02:33:43.843Z,7.78
2023-03-03T02:36:15.849Z,7.72
2023-03-03T02:38:53.239Z,7.79
2023-03-03T02:41:29.357Z,7.73
2023-03-03T02:44:07.883Z,7.70
2023-03-03T02:46:40.293Z,7.68
2023-03-03T02:49:09.630Z,7.69
2023-03-03T02:51:37.636Z,7.71
2023-03-03T02:54:05.358Z,7.68
2023-03-03T02:56:33.236Z,7.79
2023-03-03T02:59:00.196Z,7.73
2023-03-03T03:01:28.139Z,7.68
2023-03-03T03:03:54.957Z,7.67
2023-03-03T03:06:22.897Z,7.74
2023-03-03T03:08:50.037Z,7.62
2023-03-03T03:11:16.707Z,7.38
2023-03-03T03:13:43.558Z,7.02
2023-03-03T03:16:10.435Z,7.06
2023-03-03T03:18:37.324Z,7.19
2023-03-03T03:21:11.542Z,7.39
2023-03-03T03:23:39.691Z,7.25
2023-03-03T03:26:10.165Z,7.17
2023-03-03T03:28:37.399Z,7.19
2023-03-03T03:31:05.938Z,6.73
2023-03-03T03:33:34.559Z,7.07
2023-03-03T03:36:01.720Z,6.10
2023-03-03T03:38:29.830Z,6.51
2023-03-03T03:40:56.833Z,6.90
2023-03-03T03:43:23.753Z,6.79
2023-03-03T03:45:50.540Z,6.79
2023-03-03T03:48:19.914Z,6.46
2023-03-03T03:50:49.066Z,6.46
2023-03-03T03:53:17.112Z,6.59
2023-03-03T03:55:45.082Z,6.46
2023-03-03T03:58:17.370Z,6.46
2023-03-03T04:00:48.817Z,6.31
2023-03-03T04:03:16.307Z,6.26
2023-03-03T04:05:45.026Z,5.88
2023-03-03T04:08:12.516Z,5.36
2023-03-03T04:10:40.388Z,6.04
2023-03-03T04:13:07.349Z,5.88
2023-03-03T04:15:35.382Z,6.12
2023-03-03T04:18:03.588Z,6.41
2023-03-03T04:20:30.753Z,6.01
2023-03-03T04:22:58.187Z,5.92
2023-03-03T04:25:25.759Z,5.42
2023-03-03T04:27:54.367Z,5.52
2023-03-03T04:30:22.676Z,5.75
2023-03-03T04:32:53.273Z,5.99
2023-03-03T04:35:22.662Z,5.89
2023-03-03T04:37:49.585Z,5.95
2023-03-03T04:40:18.272Z,5.82
2023-03-03T04:42:47.690Z,5.79
2023-03-03T04:45:14.472Z,5.86
2023-03-03T04:47:41.560Z,6.08
2023-03-03T04:50:09.626Z,6.66
2023-03-03T04:52:36.954Z,6.38
2023-03-03T04:55:05.210Z,6.32
2023-03-03T04:57:32.294Z,6.67
2023-03-03T04:59:59.061Z,6.49
2023-03-03T05:02:25.797Z,6.11
2023-03-03T05:04:52.830Z,6.30
2023-03-03T05:07:20.055Z,5.64
2023-03-03T05:09:46.740Z,5.95
2023-03-03T05:12:13.445Z,5.44
2023-03-03T05:14:40.392Z,6.19
2023-03-03T05:17:07.124Z,6.08
2023-03-03T05:19:34.972Z,6.09
2023-03-03T05:22:02.128Z,5.99
2023-03-03T05:24:28.916Z,5.76
2023-03-03T05:26:55.852Z,6.20
2023-03-03T05:29:22.724Z,6.09
2023-03-03T05:31:50.156Z,5.44
2023-03-03T05:34:22.464Z,5.84
2023-03-03T05:36:55.585Z,5.70
2023-03-03T05:39:25.790Z,5.59
2023-03-03T05:41:52.636Z,5.55
2023-03-03T05:44:20.731Z,6.11
2023-03-03T05:46:47.606Z,5.78
2023-03-03T05:49:14.385Z,5.89
2023-03-03T05:51:41.111Z,6.24
2023-03-03T05:54:07.730Z,5.98
2023-03-03T05:56:34.539Z,6.05
2023-03-03T05:59:01.236Z,5.97
2023-03-03T06:01:29.322Z,5.73
2023-03-03T06:03:56.050Z,5.26
2023-03-03T06:06:22.689Z,5.90
2023-03-03T06:08:50.356Z,5.67
2023-03-03T06:11:18.645Z,5.68
2023-03-03T06:13:45.998Z,5.71
2023-03-03T06:16:13.013Z,5.90
2023-03-03T06:18:39.729Z,6.11
2023-03-03T06:21:06.497Z,5.83
2023-03-03T06:23:33.483Z,5.71
2023-03-03T06:26:00.364Z,5.25
2023-03-03T06:28:27.208Z,5.59
2023-03-03T06:30:55.183Z,5.60
2023-03-03T06:33:22.620Z,5.32
2023-03-03T06:35:54.162Z,5.53
2023-03-03T06:38:21.020Z,5.82
2023-03-03T06:40:49.557Z,5.73
2023-03-03T06:43:17.792Z,5.93
2023-03-03T06:45:45.709Z,5.75
2023-03-03T06:48:12.698Z,6.27
2023-03-03T06:50:39.515Z,5.97
2023-03-03T06:53:15.908Z,6.32
2023-03-03T06:55:44.968Z,6.66
2023-03-03T06:58:16.682Z,6.29
2023-03-03T07:00:45.484Z,5.43
2023-03-03T07:03:19.912Z,5.71
2023-03-03T07:05:46.735Z,5.97
2023-03-03T07:08:18.228Z,6.29
2023-03-03T07:10:46.653Z,5.87
2023-03-03T07:13:20.944Z,5.26
2023-03-03T07:15:49.958Z,5.90
2023-03-03T07:18:41.456Z,6.13
2023-03-03T07:21:16.939Z,6.46
2023-03-03T07:23:52.839Z,6.36
2023-03-03T07:26:23.251Z,5.99
2023-03-03T07:29:02.659Z,6.26
2023-03-03T07:31:34.327Z,6.44
2023-03-03T07:34:02.133Z,6.15
2023-03-03T07:36:38.024Z,6.14
2023-03-03T07:39:25.294Z,6.34
2023-03-03T07:42:01.356Z,6.20
2023-03-03T07:44:38.189Z,6.08
2023-03-03T07:47:21.147Z,5.91
2023-03-03T07:49:49.792Z,5.68
2023-03-03T07:52:43.899Z,5.49
2023-03-03T07:55:33.475Z,5.87
2023-03-03T07:58:16.447Z,5.69
2023-03-03T08:00:47.339Z,5.77
2023-03-03T08:03:19.911Z,6.19
2023-03-03T08:05:50.866Z,5.44
2023-03-03T08:08:30.639Z,5.41
2023-03-03T08:10:59.107Z,5.13
2023-03-03T08:13:37.798Z,5.46
2023-03-03T08:16:25.589Z,5.82
2023-03-03T08:18:56.721Z,6.21
2023-03-03T08:21:24.986Z,6.61
2023-03-03T08:23:53.607Z,6.75
2023-03-03T08:26:21.915Z,6.65
2023-03-03T08:28:48.862Z,6.30
2023-03-03T08:31:28.043Z,5.79
2023-03-03T08:34:03.660Z,5.84
2023-03-03T08:36:33.674Z,5.72
2023-03-03T08:39:01.582Z,6.03
2023-03-03T08:41:28.613Z,6.26
2023-03-03T08:43:57.053Z,6.13
2023-03-03T08:46:23.857Z,6.12
2023-03-03T08:48:51.449Z,6.02
2023-03-03T08:51:18.343Z,6.11
2023-03-03T08:53:45.401Z,5.87
2023-03-03T08:56:14.634Z,6.25
2023-03-03T08:59:01.335Z,5.75
2023-03-03T09:01:29.605Z,5.66
2023-03-03T09:03:56.891Z,5.63
2023-03-03T09:06:23.842Z,5.97
2023-03-03T09:08:50.662Z,6.16
2023-03-03T09:11:27.858Z,5.86
2023-03-03T09:14:02.747Z,5.75
2023-03-03T09:16:37.146Z,5.78
2023-03-03T09:19:23.584Z,5.89
2023-03-03T09:21:57.694Z,6.22
2023-03-03T09:24:36.256Z,6.18
2023-03-03T09:27:03.268Z,5.89
2023-03-03T09:29:31.961Z,6.26
2023-03-03T09:32:02.310Z,5.98
2023-03-03T09:34:42.429Z,6.03
2023-03-03T09:37:40.516Z,6.62
2023-03-03T09:40:26.933Z,6.30
2023-03-03T09:43:05.441Z,6.04
2023-03-03T09:46:07.801Z,6.09
2023-03-03T09:48:48.812Z,5.95
2023-03-03T09:51:39.538Z,6.14
2023-03-03T09:54:13.714Z,6.10
2023-03-03T09:56:59.101Z,5.97
2023-03-03T09:59:50.480Z,6.62
2023-03-03T10:02:56.778Z,6.43
2023-03-03T10:05:32.918Z,5.95
2023-03-03T10:08:08.917Z,6.04
2023-03-03T10:11:00.211Z,5.13
2023-03-03T10:13:53.978Z,6.02
2023-03-03T10:16:41.627Z,6.35
2023-03-03T10:19:38.844Z,6.63
2023-03-03T10:22:31.814Z,6.52
2023-03-03T10:24:58.931Z,6.12
2023-03-03T10:27:53.598Z,6.67
2023-03-03T10:30:39.938Z,6.60
2023-03-03T10:33:27.222Z,7.22
2023-03-03T10:36:38.136Z,6.49
2023-03-03T10:39:21.047Z,6.19
2023-03-03T10:42:14.404Z,6.70
2023-03-03T10:45:20.032Z,6.97
2023-03-03T10:47:59.210Z,6.74
2023-03-03T10:50:30.249Z,6.31
2023-03-03T10:53:11.127Z,6.38
2023-03-03T10:56:00.909Z,6.96
2023-03-03T10:58:33.832Z,6.90
2023-03-03T11:01:04.161Z,6.18
2023-03-03T11:03:50.016Z,6.56
2023-03-03T11:06:22.437Z,7.29
2023-03-03T11:08:58.767Z,7.55
2023-03-03T11:11:29.879Z,7.62
2023-03-03T11:14:06.051Z,6.81
2023-03-03T11:17:01.419Z,7.16
2023-03-03T11:19:32.403Z,7.17
2023-03-03T11:22:14.876Z,6.87
2023-03-03T11:25:03.036Z,6.85
2023-03-03T11:27:38.836Z,6.89
2023-03-03T11:30:30.369Z,7.62
2023-03-03T11:33:01.151Z,6.92
2023-03-03T11:36:05.808Z,7.10
2023-03-03T11:38:58.335Z,6.73
2023-03-03T11:41:43.424Z,6.91
2023-03-03T11:44:14.166Z,7.45
2023-03-03T11:47:12.781Z,7.90
2023-03-03T11:49:51.100Z,7.74
2023-03-03T11:52:49.381Z,7.84
2023-03-03T11:55:22.591Z,7.86
2023-03-03T11:58:08.950Z,7.97
2023-03-03T12:01:03.995Z,7.94
2023-03-03T12:03:40.102Z,7.82
2023-03-03T12:06:14.188Z,8.35
2023-03-03T12:09:08.718Z,7.86
2023-03-03T12:11:59.967Z,7.94
2023-03-03T12:14:45.554Z,8.35
2023-03-03T12:17:40.408Z,7.89
2023-03-03T12:20:29.298Z,7.79
2023-03-03T12:23:13.022Z,8.23
2023-03-03T12:26:08.429Z,8.79
2023-03-03T12:28:38.613Z,8.57
2023-03-03T12:31:26.860Z,8.86
2023-03-03T12:34:15.294Z,8.76
2023-03-03T12:36:51.327Z,8.92
2023-03-03T12:39:48.527Z,8.83
2023-03-03T12:42:35.490Z,9.11
2023-03-03T12:45:13.155Z,8.93
2023-03-03T12:47:46.707Z,9.04
2023-03-03T12:50:28.677Z,8.82
2023-03-03T12:53:10.907Z,8.55
2023-03-03T12:55:53.863Z,8.65
2023-03-03T12:58:47.058Z,8.47
2023-03-03T13:01:34.109Z,8.47
2023-03-03T13:04:23.940Z,8.80
2023-03-03T13:07:04.225Z,8.56
2023-03-03T13:09:43.227Z,8.08
2023-03-03T13:12:40.690Z,8.80
2023-03-03T13:15:17.185Z,8.67
2023-03-03T13:17:49.464Z,8.88
2023-03-03T13:20:25.441Z,8.65
2023-03-03T13:22:57.483Z,8.66
2023-03-03T13:25:44.167Z,8.48
2023-03-03T13:28:34.985Z,9.17
2023-03-03T13:31:09.830Z,8.87
2023-03-03T13:33:37.343Z,9.02
2023-03-03T13:36:09.507Z,9.15
2023-03-03T13:38:51.691Z,9.16
2023-03-03T13:41:21.548Z,9.33
2023-03-03T13:44:21.270Z,9.61
2023-03-03T13:46:57.349Z,9.60
2023-03-03T13:49:42.539Z,9.70
2023-03-03T13:52:12.265Z,9.21
2023-03-03T13:54:58.149Z,9.62
2023-03-03T13:57:52.545Z,9.15
2023-03-03T14:00:39.184Z,9.52
2023-03-03T14:03:15.642Z,9.67
2023-03-03T14:05:50.223Z,9.91
2023-03-03T14:08:48.202Z,9.27
2023-03-03T14:11:26.646Z,9.28
2023-03-03T14:14:05.731Z,9.58
2023-03-03T14:16:45.256Z,9.84
2023-03-03T14:19:17.464Z,9.36
2023-03-03T14:21:52.496Z,9.76
2023-03-03T14:24:25.396Z,9.96
2023-03-03T14:27:00.231Z,9.91
2023-03-03T14:29:29.835Z,10.23
2023-03-03T14:32:01.700Z,9.99
2023-03-03T14:34:41.853Z,9.97
2023-03-03T14:37:25.285Z,10.09
2023-03-03T14:40:37.142Z,9.91
2023-03-03T14:43:20.728Z,10.38
2023-03-03T14:45:48.006Z,9.91
2023-03-03T14:48:28.065Z,10.15
2023-03-03T14:51:23.454Z,10.09
2023-03-03T14:53:50.568Z,9.82
2023-03-03T14:56:33.810Z,9.39
2023-03-03T14:59:19.764Z,10.08
2023-03-03T15:01:46.680Z,9.92
2023-03-03T15:04:16.311Z,10.15
2023-03-03T15:06:46.928Z,9.98
2023-03-03T15:09:37.480Z,9.63
2023-03-03T15:12:33.761Z,10.40
2023-03-03T15:15:08.901Z,10.35
2023-03-03T15:17:50.306Z,10.56
2023-03-03T15:20:25.296Z,10.24
2023-03-03T15:23:22.180Z,10.21
2023-03-03T15:26:07.172Z,9.84
2023-03-03T15:28:59.457Z,10.10
2023-03-03T15:31:52.333Z,10.31
2023-03-03T15:34:30.384Z,10.46
2023-03-03T15:37:22.728Z,10.35
2023-03-03T15:40:14.039Z,9.99
2023-03-03T15:43:02.677Z,10.22
2023-03-03T15:45:33.839Z,10.25
2023-03-03T15:48:36.112Z,10.36
2023-03-03T15:52:02.532Z,10.14
2023-03-03T15:54:46.021Z,9.96
2023-03-03T15:57:25.060Z,9.95
2023-03-03T15:59:59.130Z,9.96
2023-03-03T16:02:50.601Z,10.49
2023-03-03T16:05:25.705Z,10.32
2023-03-03T16:08:00.779Z,10.26
2023-03-03T16:10:39.672Z,10.55
2023-03-03T16:13:35.615Z,10.41
2023-03-03T16:16:13.890Z,10.15
2023-03-03T16:18:49.696Z,10.21
2023-03-03T16:21:22.279Z,10.53
2023-03-03T16:24:32.293Z,10.34
2023-03-03T16:27:28.256Z,9.94
2023-03-03T16:30:27.628Z,10.13
2023-03-03T16:33:16.196Z,10.06
2023-03-03T16:35:50.502Z,10.16
2023-03-03T16:38:22.191Z,9.69
2023-03-03T16:40:57.108Z,10.10
2023-03-03T16:43:26.829Z,9.93
2023-03-03T16:45:58.935Z,10.19
2023-03-03T16:48:46.219Z,10.18
2023-03-03T16:51:21.089Z,10.21
2023-03-03T16:53:51.040Z,10.02
2023-03-03T16:56:25.289Z,9.88
2023-03-03T16:58:58.091Z,10.31
2023-03-03T17:01:40.161Z,10.65
2023-03-03T17:04:32.037Z,10.49
2023-03-03T17:07:12.932Z,10.60
2023-03-03T17:09:45.696Z,10.72
2023-03-03T17:12:21.119Z,10.50
2023-03-03T17:14:58.235Z,10.31
2023-03-03T17:17:57.145Z,10.52
2023-03-03T17:20:36.666Z,10.63
2023-03-03T17:23:20.011Z,10.80
2023-03-03T17:26:11.771Z,10.90
2023-03-03T17:29:23.146Z,10.91
2023-03-03T17:32:25.077Z,10.91
2023-03-03T17:35:15.324Z,10.95
2023-03-03T17:37:48.613Z,11.00
2023-03-03T17:40:27.984Z,11.03
2023-03-03T17:43:04.172Z,10.99
2023-03-03T17:45:35.688Z,11.00
2023-03-03T17:48:29.037Z,10.97
2023-03-03T17:51:36.964Z,10.96
2023-03-03T17:54:12.950Z,11.03
2023-03-03T17:56:58.558Z,11.07
2023-03-03T17:59:52.562Z,11.09
2023-03-03T18:02:38.801Z,11.07
2023-03-03T18:05:42.928Z,11.06
2023-03-03T18:08:37.804Z,11.07
2023-03-03T18:11:10.833Z,11.10
2023-03-03T18:14:14.353Z,11.11
2023-03-03T18:17:02.935Z,11.11
2023-03-03T18:20:03.897Z,11.04
2023-03-03T18:22:53.172Z,11.14
2023-03-03T18:25:23.329Z,11.15
2023-03-03T18:28:02.092Z,11.19
2023-03-03T18:30:55.473Z,11.19
2023-03-03T18:33:43.019Z,11.18
2023-03-03T18:36:32.886Z,11.18
2023-03-03T18:39:01.616Z,11.14
2023-03-03T18:41:30.412Z,11.15
2023-03-03T18:44:29.835Z,11.18
2023-03-03T18:46:58.890Z,11.16
2023-03-03T18:49:50.111Z,11.21
2023-03-03T18:52:23.066Z,11.16
2023-03-03T18:55:13.116Z,11.14
2023-03-03T18:57:40.020Z,11.06
2023-03-03T19:00:33.921Z,11.03
2023-03-03T19:03:01.306Z,10.77
2023-03-03T19:05:35.267Z,10.89
2023-03-03T19:08:23.454Z,10.97
2023-03-03T19:11:03.403Z,10.99
2023-03-03T19:13:33.184Z,10.97
2023-03-03T19:16:26.114Z,10.69
2023-03-03T19:18:52.973Z,10.70
2023-03-03T19:21:28.352Z,10.51
2023-03-03T19:24:03.609Z,10.86
2023-03-03T19:26:58.055Z,10.86
2023-03-03T19:29:46.845Z,10.94
2023-03-03T19:32:38.380Z,10.92
2023-03-03T19:35:33.140Z,10.99
2023-03-03T19:38:20.374Z,11.05
2023-03-03T19:41:12.500Z,11.05
2023-03-03T19:43:54.723Z,11.03
2023-03-03T19:46:46.263Z,11.05
2023-03-03T19:49:41.116Z,10.98
2023-03-03T19:52:14.846Z,10.56
2023-03-03T19:54:46.386Z,10.93
2023-03-03T19:57:34.786Z,11.04
2023-03-03T20:00:26.085Z,11.02
2023-03-03T20:03:02.868Z,10.74
2023-03-03T20:05:35.056Z,10.78
2023-03-03T20:08:29.977Z,10.79
2023-03-03T20:11:05.713Z,10.94
2023-03-03T20:13:50.846Z,11.00
2023-03-03T20:16:37.744Z,10.97
2023-03-03T20:19:07.611Z,10.73
2023-03-03T20:21:42.716Z,10.84
2023-03-03T20:24:31.110Z,10.90
2023-03-03T20:27:05.485Z,10.88
2023-03-03T20:29:44.692Z,10.94
2023-03-03T20:32:36.580Z,10.98
2023-03-03T20:35:16.507Z,10.82
2023-03-03T20:37:53.998Z,10.94
2023-03-03T20:40:54.438Z,10.74
2023-03-03T20:43:26.320Z,10.74
2023-03-03T20:45:59.186Z,10.55
2023-03-03T20:48:48.150Z,10.57
2023-03-03T20:51:25.257Z,10.54
2023-03-03T20:54:07.311Z,10.56
2023-03-03T20:57:15.887Z,10.90
2023-03-03T21:00:03.117Z,10.95
2023-03-03T21:02:35.946Z,10.96
2023-03-03T21:05:16.067Z,11.12
2023-03-03T21:08:07.154Z,10.90
2023-03-03T21:10:36.484Z,11.13
2023-03-03T21:13:40.982Z,11.14
2023-03-03T21:16:20.264Z,11.08
2023-03-03T21:19:04.492Z,11.17
2023-03-03T21:21:37.201Z,11.15
2023-03-03T21:24:04.519Z,11.21
2023-03-03T21:26:50.278Z,11.15
2023-03-03T21:29:34.591Z,11.18
2023-03-03T21:32:07.848Z,11.22
2023-03-03T21:34:39.875Z,10.91
2023-03-03T21:37:08.200Z,10.94
2023-03-03T21:39:46.974Z,10.79
2023-03-03T21:42:16.271Z,10.53
2023-03-03T21:44:46.640Z,10.84
2023-03-03T21:47:16.268Z,10.10
2023-03-03T21:49:44.203Z,10.45
2023-03-03T21:52:12.852Z,10.71
2023-03-03T21:54:40.682Z,10.29
2023-03-03T21:57:07.508Z,10.66
2023-03-03T21:59:34.268Z,10.58
2023-03-03T22:02:01.462Z,10.58
2023-03-03T22:04:28.661Z,10.60
2023-03-03T22:06:56.151Z,10.60
2023-03-03T22:09:23.733Z,10.47
2023-03-03T22:11:50.924Z,10.73
2023-03-03T22:14:18.254Z,10.78
2023-03-03T22:16:45.647Z,10.46
2023-03-03T22:19:12.501Z,10.45
2023-03-03T22:21:39.932Z,10.77
2023-03-03T22:24:07.447Z,10.95
2023-03-03T22:26:35.051Z,10.90
2023-03-03T22:29:02.324Z,10.81
2023-03-03T22:31:29.151Z,10.66
2023-03-03T22:33:56.106Z,10.54
2023-03-03T22:36:22.987Z,10.52
2023-03-03T22:38:50.020Z,10.63
2023-03-03T22:41:17.455Z,10.59
2023-03-03T22:43:45.007Z,10.37
2023-03-03T22:46:12.067Z,10.48
2023-03-03T22:48:39.631Z,10.33
2023-03-03T22:51:06.829Z,10.67
2023-03-03T22:53:34.088Z,10.76
2023-03-03T22:56:01.462Z,10.53
2023-03-03T22:58:29.484Z,10.76
2023-03-03T23:00:56.339Z,10.80
2023-03-03T23:03:23.725Z,10.79
2023-03-03T23:05:51.941Z,10.97
2023-03-03T23:08:26.497Z,11.00
2023-03-03T23:10:56.231Z,10.84
2023-03-03T23:13:25.281Z,10.52
2023-03-03T23:15:52.267Z,10.61
2023-03-03T23:18:19.082Z,10.71
2023-03-03T23:20:51.088Z,10.88
2023-03-03T23:23:20.663Z,10.48
2023-03-03T23:25:47.678Z,10.37
2023-03-03T23:28:15.684Z,10.54
2023-03-03T23:30:43.012Z,10.26
2023-03-03T23:33:09.834Z,9.82
2023-03-03T23:35:44.404Z,10.45
2023-03-03T23:38:15.459Z,10.56
2023-03-03T23:40:44.777Z,10.20
2023-03-03T23:43:11.738Z,10.25
2023-03-03T23:45:38.625Z,10.41
2023-03-03T23:48:06.054Z,10.31
2023-03-03T23:50:34.158Z,10.18
2023-03-03T23:53:00.788Z,10.45
2023-03-03T23:55:27.601Z,10.26
2023-03-03T23:57:54.421Z,10.11
